Time;durP1;ratioP1;P1;durP2;ratioP2;P2;SDS_P1;SDS_P2;PMS_P1;PMS_P2;Temp;Humidity;BMP_temperature;BMP_pressure;BME280_temperature;BME280_humidity;BME280_pressure;Samples;Min_cycle;Max_cycle;Signal;HPM_P1;HPM_P2
2022/07/10 00:00:36;;;;;;;6.60;1.48;;;;;;;;;;5132968;28;20031;-77
2022/07/10 00:03:01;;;;;;;14.50;2.17;;;;;;;;;;5132945;27;20079;-77
2022/07/10 00:05:27;;;;;;;9.85;1.92;;;;;;;;;;5133342;27;20118;-77
2022/07/10 00:07:52;;;;;;;5.75;1.50;;;;;;;;;;5132230;27;20389;-77
2022/07/10 00:10:19;;;;;;;6.43;1.30;;;;;;;;;;5132656;27;20050;-77
2022/07/10 00:12:46;;;;;;;5.40;1.30;;;;;;;;;;5132595;28;20024;-77
2022/07/10 00:15:12;;;;;;;11.98;1.60;;;;;;;;;;5134125;27;20441;-77
2022/07/10 00:17:39;;;;;;;5.55;1.50;;;;;;;;;;5115455;28;20027;-77
2022/07/10 00:20:06;;;;;;;6.78;1.25;;;;;;;;;;5115641;28;20038;-77
2022/07/10 00:22:35;;;;;;;9.68;1.40;;;;;;;;;;5132749;27;20027;-77
2022/07/10 00:25:05;;;;;;;7.68;1.42;;;;;;;;;;5115612;28;20114;-77
2022/07/10 00:27:31;;;;;;;9.30;2.08;;;;;;;;;;5115504;28;20031;-77
2022/07/10 00:29:57;;;;;;;9.70;1.75;;;;;;;;;;5115469;28;20656;-77
2022/07/10 00:32:23;;;;;;;12.50;2.10;;;;;;;;;;5132959;28;20087;-77
2022/07/10 00:34:51;;;;;;;7.15;1.58;;;;;;;;;;5120619;27;20121;-77
2022/07/10 00:37:17;;;;;;;4.78;1.35;;;;;;;;;;5135691;27;20488;-77
2022/07/10 00:39:44;;;;;;;6.75;1.20;;;;;;;;;;5137575;27;20069;-77
2022/07/10 00:42:13;;;;;;;8.30;1.42;;;;;;;;;;5139850;27;20049;-77
2022/07/10 00:44:39;;;;;;;5.68;1.30;;;;;;;;;;5157214;27;20035;-77
2022/07/10 00:47:07;;;;;;;7.47;1.40;;;;;;;;;;5139900;27;20038;-77
2022/07/10 00:49:34;;;;;;;7.88;1.55;;;;;;;;;;5157098;27;20040;-77
2022/07/10 00:52:02;;;;;;;5.68;1.85;;;;;;;;;;5139686;27;20034;-77
2022/07/10 00:54:32;;;;;;;5.38;1.25;;;;;;;;;;5158162;27;20038;-77
2022/07/10 00:56:57;;;;;;;4.22;1.77;;;;;;;;;;5156983;27;20039;-77
2022/07/10 00:59:24;;;;;;;11.07;1.52;;;;;;;;;;5139410;27;20023;-77
2022/07/10 01:01:50;;;;;;;6.38;1.23;;;;;;;;;;5157027;27;20034;-77
2022/07/10 01:04:16;;;;;;;11.48;1.50;;;;;;;;;;5154714;27;20396;-77
2022/07/10 01:06:42;;;;;;;3.88;1.10;;;;;;;;;;5118691;27;20031;-77
2022/07/10 01:09:07;;;;;;;6.40;1.30;;;;;;;;;;5136196;27;20037;-77
2022/07/10 01:11:34;;;;;;;4.43;0.95;;;;;;;;;;5135850;27;20022;-77
2022/07/10 01:14:02;;;;;;;4.40;1.08;;;;;;;;;;5137040;27;20039;-77
2022/07/10 01:16:29;;;;;;;9.32;1.70;;;;;;;;;;5136006;27;20031;-77
2022/07/10 01:18:56;;;;;;;7.07;1.60;;;;;;;;;;5135601;27;20035;-77
2022/07/10 01:21:31;;;;;;;7.35;1.42;;;;;;;;;;5135806;27;20050;-76
2022/07/10 01:23:57;;;;;;;6.25;1.13;;;;;;;;;;5136957;27;20046;-77
2022/07/10 01:26:23;;;;;;;9.65;1.92;;;;;;;;;;5118390;27;20031;-77
2022/07/10 01:28:53;;;;;;;6.97;1.52;;;;;;;;;;5136708;27;20454;-77
2022/07/10 01:31:19;;;;;;;3.72;0.98;;;;;;;;;;5118041;27;20031;-78
2022/07/10 01:33:46;;;;;;;8.07;2.05;;;;;;;;;;5135206;27;20494;-78
2022/07/10 01:36:12;;;;;;;8.38;1.35;;;;;;;;;;5136045;27;20115;-77
2022/07/10 01:38:39;;;;;;;10.32;2.33;;;;;;;;;;5117933;27;20088;-77
2022/07/10 01:41:08;;;;;;;14.90;2.28;;;;;;;;;;5118432;27;20061;-77
2022/07/10 01:43:35;;;;;;;8.05;1.20;;;;;;;;;;5135006;27;20092;-77
2022/07/10 01:46:01;;;;;;;5.65;1.10;;;;;;;;;;5135098;27;20038;-77
2022/07/10 01:48:26;;;;;;;3.53;1.13;;;;;;;;;;5135253;27;20027;-77
2022/07/10 01:50:51;;;;;;;7.38;1.27;;;;;;;;;;5134657;27;20054;-77
2022/07/10 01:53:17;;;;;;;5.72;1.23;;;;;;;;;;5135300;27;20422;-77
2022/07/10 01:55:43;;;;;;;8.70;1.52;;;;;;;;;;5135057;27;20031;-77
2022/07/10 01:58:09;;;;;;;4.38;1.15;;;;;;;;;;5135173;27;20035;-77
2022/07/10 02:00:35;;;;;;;7.22;1.33;;;;;;;;;;5117659;27;20036;-77
2022/07/10 02:05:45;;;;;;;7.22;1.60;;;;;;;;;;5119771;27;20043;-77
2022/07/10 02:08:12;;;;;;;3.80;0.95;;;;;;;;;;5114226;28;20035;-77
2022/07/10 02:10:38;;;;;;;4.13;1.05;;;;;;;;;;5096969;28;20112;-77
2022/07/10 02:13:04;;;;;;;5.25;1.63;;;;;;;;;;5113938;28;20074;-77
2022/07/10 02:15:29;;;;;;;6.68;1.45;;;;;;;;;;5114849;28;20040;-77
2022/07/10 02:17:55;;;;;;;6.40;0.90;;;;;;;;;;5110080;27;20114;-77
2022/07/10 02:20:22;;;;;;;5.30;1.23;;;;;;;;;;5135864;27;20399;-77
2022/07/10 02:22:48;;;;;;;7.22;1.55;;;;;;;;;;5117631;27;20045;-77
2022/07/10 02:25:14;;;;;;;10.52;2.80;;;;;;;;;;5134191;27;20473;-77
2022/07/10 02:27:39;;;;;;;5.95;1.40;;;;;;;;;;5134237;27;20031;-77
2022/07/10 02:30:06;;;;;;;3.75;0.98;;;;;;;;;;5135534;27;20529;-77
2022/07/10 02:32:32;;;;;;;8.27;1.38;;;;;;;;;;5135322;27;20039;-77
2022/07/10 02:34:57;;;;;;;5.97;1.95;;;;;;;;;;5121010;27;20029;-77
2022/07/10 02:37:23;;;;;;;4.78;1.35;;;;;;;;;;5154749;27;20091;-77
2022/07/10 02:39:48;;;;;;;3.35;1.10;;;;;;;;;;5154590;27;20121;-77
2022/07/10 02:42:15;;;;;;;2.42;0.90;;;;;;;;;;5154663;27;20042;-77
2022/07/10 02:44:43;;;;;;;8.98;1.30;;;;;;;;;;5154744;27;20034;-77
2022/07/10 02:47:11;;;;;;;5.57;1.20;;;;;;;;;;5154799;27;20480;-77
2022/07/10 02:49:37;;;;;;;7.30;1.33;;;;;;;;;;5154853;27;20027;-77
2022/07/10 02:52:02;;;;;;;10.50;1.70;;;;;;;;;;5154843;27;20042;-77
2022/07/10 02:54:28;;;;;;;3.65;1.23;;;;;;;;;;5137395;27;20057;-77
2022/07/10 02:56:54;;;;;;;5.82;1.20;;;;;;;;;;5137630;27;20429;-77
2022/07/10 02:59:19;;;;;;;7.32;1.55;;;;;;;;;;5156043;27;20043;-77
2022/07/10 03:01:44;;;;;;;4.47;1.25;;;;;;;;;;5136612;27;20038;-77
2022/07/10 03:04:10;;;;;;;7.65;1.38;;;;;;;;;;5154851;27;20035;-78
2022/07/10 03:06:36;;;;;;;6.28;1.27;;;;;;;;;;5137396;27;20035;-77
2022/07/10 03:09:02;;;;;;;3.47;1.20;;;;;;;;;;5113884;27;20035;-77
2022/07/10 03:11:28;;;;;;;3.72;1.10;;;;;;;;;;5113225;28;20032;-77
2022/07/10 03:13:54;;;;;;;9.45;1.42;;;;;;;;;;5112962;28;20085;-77
2022/07/10 03:16:20;;;;;;;6.82;1.30;;;;;;;;;;5113114;28;20035;-77
2022/07/10 03:18:47;;;;;;;4.53;1.35;;;;;;;;;;5116175;27;20031;-77
2022/07/10 03:21:14;;;;;;;11.25;1.52;;;;;;;;;;5133676;27;20035;-77
2022/07/10 03:23:40;;;;;;;5.80;1.58;;;;;;;;;;5116354;27;20036;-77
2022/07/10 03:26:05;;;;;;;6.57;1.20;;;;;;;;;;5116221;27;20039;-77
2022/07/10 03:28:31;;;;;;;6.60;1.50;;;;;;;;;;5133666;27;20031;-77
2022/07/10 03:30:56;;;;;;;7.32;1.45;;;;;;;;;;5134629;27;20035;-77
2022/07/10 03:33:22;;;;;;;10.52;1.95;;;;;;;;;;5133338;27;20046;-77
2022/07/10 03:35:49;;;;;;;8.50;1.65;;;;;;;;;;5134181;27;20023;-78
2022/07/10 03:38:14;;;;;;;9.82;1.42;;;;;;;;;;5116039;27;20031;-77
2022/07/10 03:40:42;;;;;;;5.30;1.00;;;;;;;;;;5113927;27;20053;-77
2022/07/10 03:43:08;;;;;;;5.53;1.42;;;;;;;;;;5096062;28;20028;-78
2022/07/10 03:45:34;;;;;;;6.00;1.42;;;;;;;;;;5113771;28;20031;-77
2022/07/10 03:47:59;;;;;;;8.65;1.70;;;;;;;;;;5112554;28;20031;-77
2022/07/10 03:50:24;;;;;;;6.57;2.78;;;;;;;;;;5112371;28;20042;-77
2022/07/10 03:52:51;;;;;;;7.32;1.73;;;;;;;;;;5112519;28;20405;-77
2022/07/10 03:55:19;;;;;;;8.07;1.50;;;;;;;;;;5112098;28;20027;-77
2022/07/10 03:57:56;;;;;;;4.90;1.17;;;;;;;;;;5112297;28;20035;-77
2022/07/10 04:00:31;;;;;;;9.90;2.10;;;;;;;;;;5095279;28;20100;-77
2022/07/10 04:02:59;;;;;;;9.35;1.92;;;;;;;;;;5095164;28;20035;-77
2022/07/10 04:05:27;;;;;;;6.07;1.33;;;;;;;;;;5111908;28;20027;-77
2022/07/10 04:07:53;;;;;;;6.38;1.00;;;;;;;;;;5112286;28;20046;-77
2022/07/10 04:10:20;;;;;;;13.55;2.20;;;;;;;;;;5095461;28;20031;-77
2022/07/10 04:12:47;;;;;;;8.15;1.65;;;;;;;;;;5112705;28;20124;-77
2022/07/10 04:15:13;;;;;;;5.80;1.45;;;;;;;;;;5117483;28;20050;-77
2022/07/10 04:17:38;;;;;;;6.07;1.60;;;;;;;;;;5099053;28;20035;-77
2022/07/10 04:20:05;;;;;;;7.45;1.33;;;;;;;;;;5117384;28;20040;-77
2022/07/10 04:22:30;;;;;;;6.35;1.73;;;;;;;;;;5099041;28;20042;-77
2022/07/10 04:24:56;;;;;;;5.00;1.35;;;;;;;;;;5116179;28;20062;-77
2022/07/10 04:27:21;;;;;;;8.82;1.70;;;;;;;;;;5099008;28;20034;-77
2022/07/10 04:29:48;;;;;;;8.25;1.85;;;;;;;;;;5099147;28;20032;-77
2022/07/10 04:32:15;;;;;;;8.35;1.80;;;;;;;;;;5116984;28;20031;-77
2022/07/10 04:34:41;;;;;;;9.90;1.95;;;;;;;;;;5104197;27;20035;-77
2022/07/10 04:37:09;;;;;;;7.63;2.63;;;;;;;;;;5136371;27;20042;-77
2022/07/10 04:39:38;;;;;;;4.88;1.38;;;;;;;;;;5137240;27;20058;-77
2022/07/10 04:42:05;;;;;;;7.93;1.80;;;;;;;;;;5119417;27;20035;-77
2022/07/10 04:44:31;;;;;;;7.65;1.65;;;;;;;;;;5136257;27;20551;-77
2022/07/10 04:46:59;;;;;;;8.07;1.40;;;;;;;;;;5137502;27;20118;-77
2022/07/10 04:49:25;;;;;;;11.93;1.60;;;;;;;;;;5119098;27;20737;-77
2022/07/10 04:51:51;;;;;;;8.27;1.73;;;;;;;;;;5136257;27;20027;-77
2022/07/10 04:54:17;;;;;;;7.53;1.80;;;;;;;;;;5118838;27;20031;-77
2022/07/10 04:56:44;;;;;;;5.82;1.58;;;;;;;;;;5136260;27;20050;-77
2022/07/10 04:59:10;;;;;;;4.93;1.20;;;;;;;;;;5119179;27;20031;-77
2022/07/10 05:01:37;;;;;;;4.47;1.70;;;;;;;;;;5136350;27;20044;-76
2022/07/10 05:04:02;;;;;;;10.95;1.92;;;;;;;;;;5118665;27;20050;-76
2022/07/10 05:06:28;;;;;;;5.18;1.30;;;;;;;;;;5118661;27;20035;-77
2022/07/10 05:08:55;;;;;;;6.75;2.15;;;;;;;;;;5135895;27;20039;-77
2022/07/10 05:11:21;;;;;;;7.95;1.58;;;;;;;;;;5135999;27;20031;-76
2022/07/10 05:13:48;;;;;;;5.68;1.58;;;;;;;;;;5136865;27;20031;-77
2022/07/10 05:16:17;;;;;;;14.80;1.80;;;;;;;;;;5136048;27;20047;-77
2022/07/10 05:18:43;;;;;;;8.23;2.10;;;;;;;;;;5136687;27;20499;-77
2022/07/10 05:21:09;;;;;;;9.43;1.48;;;;;;;;;;5136857;27;20039;-77
2022/07/10 05:23:35;;;;;;;6.90;1.90;;;;;;;;;;5136907;27;20433;-77
2022/07/10 05:26:01;;;;;;;8.95;1.98;;;;;;;;;;5134642;27;20039;-77
2022/07/10 05:28:27;;;;;;;10.00;1.52;;;;;;;;;;5135568;27;20484;-77
2022/07/10 05:30:53;;;;;;;8.88;1.85;;;;;;;;;;5135554;27;20031;-77
2022/07/10 05:33:19;;;;;;;9.20;1.95;;;;;;;;;;5118653;27;20034;-77
2022/07/10 05:35:45;;;;;;;7.53;2.00;;;;;;;;;;5134499;27;20031;-77
2022/07/10 05:38:10;;;;;;;9.35;1.40;;;;;;;;;;5136124;27;20472;-77
2022/07/10 05:40:36;;;;;;;8.80;1.60;;;;;;;;;;5117994;27;20047;-77
2022/07/10 05:43:03;;;;;;;8.52;1.95;;;;;;;;;;5118240;27;20463;-77
2022/07/10 05:45:29;;;;;;;11.35;1.63;;;;;;;;;;5117410;27;20039;-77
2022/07/10 05:47:56;;;;;;;4.65;1.30;;;;;;;;;;5135209;27;20140;-77
2022/07/10 05:50:22;;;;;;;8.98;1.52;;;;;;;;;;5117969;27;20070;-77
2022/07/10 05:52:49;;;;;;;8.98;1.45;;;;;;;;;;5135363;27;20058;-77
2022/07/10 05:55:15;;;;;;;8.13;2.13;;;;;;;;;;5115805;27;20031;-77
2022/07/10 05:57:40;;;;;;;5.38;1.40;;;;;;;;;;5117743;27;20548;-77
2022/07/10 06:00:08;;;;;;;5.35;1.20;;;;;;;;;;5117752;27;20031;-77
2022/07/10 06:02:40;;;;;;;9.20;2.15;;;;;;;;;;5118598;27;20031;-77
2022/07/10 06:05:07;;;;;;;5.35;1.45;;;;;;;;;;5135980;27;20038;-77
2022/07/10 06:07:34;;;;;;;9.68;1.77;;;;;;;;;;5117842;27;20128;-77
2022/07/10 06:09:59;;;;;;;5.72;1.42;;;;;;;;;;5134879;27;20125;-77
2022/07/10 06:12:26;;;;;;;9.93;2.35;;;;;;;;;;5135953;27;20459;-77
2022/07/10 06:14:51;;;;;;;7.10;1.83;;;;;;;;;;5118290;27;20130;-78
2022/07/10 06:17:17;;;;;;;5.47;1.52;;;;;;;;;;5136208;27;20059;-78
2022/07/10 06:19:42;;;;;;;9.43;1.67;;;;;;;;;;5135059;27;20023;-77
2022/07/10 06:24:53;;;;;;;4.22;1.23;;;;;;;;;;5136484;27;20039;-78
2022/07/10 06:27:18;;;;;;;5.53;1.50;;;;;;;;;;5136202;27;20031;-78
2022/07/10 06:29:44;;;;;;;5.47;1.38;;;;;;;;;;5138113;27;20098;-78
2022/07/10 06:32:09;;;;;;;5.60;1.35;;;;;;;;;;5135714;27;20073;-78
2022/07/10 06:34:35;;;;;;;5.88;1.73;;;;;;;;;;5137383;27;20050;-78
2022/07/10 06:37:01;;;;;;;7.25;1.40;;;;;;;;;;5119139;27;20089;-78
2022/07/10 06:39:31;;;;;;;6.70;1.75;;;;;;;;;;5124470;27;20039;-78
2022/07/10 06:41:57;;;;;;;6.78;1.42;;;;;;;;;;5115863;28;20126;-79
2022/07/10 06:44:22;;;;;;;7.75;1.52;;;;;;;;;;5116192;28;20114;-78
2022/07/10 06:47:55;;;;;;;5.18;1.60;;;;;;;;;;5115729;28;20062;-78
2022/07/10 06:49:33;;;;;;;7.20;1.77;;;;;;;;;;5115980;28;20039;-78
2022/07/10 06:51:59;;;;;;;6.78;1.30;;;;;;;;;;5116832;28;20038;-78
2022/07/10 06:54:27;;;;;;;8.63;1.85;;;;;;;;;;5114875;28;20516;-78
2022/07/10 06:56:53;;;;;;;8.43;1.38;;;;;;;;;;5098164;28;20042;-78
2022/07/10 06:59:19;;;;;;;11.73;2.47;;;;;;;;;;5115323;28;20031;-78
2022/07/10 07:01:44;;;;;;;6.68;1.73;;;;;;;;;;5098724;28;20032;-78
2022/07/10 07:04:10;;;;;;;8.75;1.83;;;;;;;;;;5096497;28;20036;-78
2022/07/10 07:06:35;;;;;;;7.50;1.73;;;;;;;;;;5116207;28;20031;-78
2022/07/10 07:09:01;;;;;;;8.23;1.90;;;;;;;;;;5114998;28;20084;-77
2022/07/10 07:11:27;;;;;;;6.65;1.50;;;;;;;;;;5095989;28;20032;-77
2022/07/10 07:13:53;;;;;;;5.22;1.60;;;;;;;;;;5117255;27;20039;-79
2022/07/10 07:16:20;;;;;;;6.53;1.63;;;;;;;;;;5119318;27;20053;-79
2022/07/10 07:18:52;;;;;;;9.15;1.70;;;;;;;;;;5136236;27;20035;-79
2022/07/10 07:24:04;;;;;;;10.32;1.60;;;;;;;;;;5132983;27;20121;-77
2022/07/10 07:26:29;;;;;;;9.13;1.77;;;;;;;;;;5133559;27;20058;-76
2022/07/10 07:28:55;;;;;;;5.63;1.58;;;;;;;;;;5133377;27;20126;-77
2022/07/10 07:31:20;;;;;;;10.30;1.85;;;;;;;;;;5116362;27;20031;-78
2022/07/10 07:33:46;;;;;;;6.63;2.25;;;;;;;;;;5133173;27;20038;-79
2022/07/10 07:36:13;;;;;;;8.27;2.03;;;;;;;;;;5117790;27;20039;-80
2022/07/10 07:38:39;;;;;;;10.13;1.77;;;;;;;;;;5136489;27;20043;-77
2022/07/10 07:41:05;;;;;;;9.77;1.60;;;;;;;;;;5134200;27;20039;-77
2022/07/10 07:43:30;;;;;;;8.23;1.65;;;;;;;;;;5133417;27;20087;-77
2022/07/10 07:45:56;;;;;;;7.72;1.70;;;;;;;;;;5118003;27;20486;-79
2022/07/10 07:48:22;;;;;;;4.22;1.40;;;;;;;;;;5116546;27;20042;-78
2022/07/10 07:50:47;;;;;;;6.55;1.80;;;;;;;;;;5133016;27;20039;-77
2022/07/10 07:53:12;;;;;;;7.68;1.85;;;;;;;;;;5132474;27;20058;-77
2022/07/10 07:55:40;;;;;;;8.75;1.65;;;;;;;;;;5136102;27;20031;-78
2022/07/10 07:58:06;;;;;;;8.95;1.67;;;;;;;;;;5118834;28;20059;-78
2022/07/10 08:00:33;;;;;;;10.70;1.50;;;;;;;;;;5138042;27;20031;-79
2022/07/10 08:03:00;;;;;;;7.70;1.80;;;;;;;;;;5137864;27;20054;-77
2022/07/10 08:05:26;;;;;;;7.15;1.60;;;;;;;;;;5132817;28;20469;-77
2022/07/10 08:07:58;;;;;;;5.70;1.70;;;;;;;;;;5115220;28;20038;-77
2022/07/10 08:10:26;;;;;;;7.00;1.20;;;;;;;;;;5137157;27;20022;-77
2022/07/10 08:12:52;;;;;;;4.15;1.67;;;;;;;;;;5153099;27;20027;-79
2022/07/10 08:15:23;;;;;;;6.22;1.52;;;;;;;;;;5155915;27;20031;-77
2022/07/10 08:17:50;;;;;;;7.82;1.50;;;;;;;;;;5152627;27;20038;-77
2022/07/10 08:20:15;;;;;;;6.25;1.50;;;;;;;;;;5135610;27;20041;-76
2022/07/10 08:22:42;;;;;;;6.97;1.48;;;;;;;;;;5152813;27;20039;-76
2022/07/10 08:25:09;;;;;;;3.67;1.00;;;;;;;;;;5152960;27;20082;-76
2022/07/10 08:27:35;;;;;;;7.82;1.15;;;;;;;;;;5153568;27;20077;-75
2022/07/10 08:30:00;;;;;;;10.80;2.38;;;;;;;;;;5154152;27;20148;-76
2022/07/10 08:32:27;;;;;;;6.55;1.25;;;;;;;;;;5152831;27;20106;-76
2022/07/10 08:34:53;;;;;;;4.93;1.30;;;;;;;;;;5152938;27;20038;-77
2022/07/10 08:37:19;;;;;;;7.53;2.08;;;;;;;;;;5154024;27;20502;-76
2022/07/10 08:39:45;;;;;;;7.57;1.50;;;;;;;;;;5119557;28;20124;-76
2022/07/10 08:42:11;;;;;;;6.43;1.58;;;;;;;;;;5114994;28;20031;-76
2022/07/10 08:44:38;;;;;;;8.63;1.77;;;;;;;;;;5133196;27;20041;-76
2022/07/10 08:47:04;;;;;;;6.30;1.48;;;;;;;;;;5132093;27;20095;-75
2022/07/10 08:49:31;;;;;;;4.55;1.08;;;;;;;;;;5132147;28;20027;-75
2022/07/10 08:52:05;;;;;;;7.38;1.40;;;;;;;;;;5132167;27;20122;-76
2022/07/10 08:54:33;;;;;;;7.65;1.52;;;;;;;;;;5132087;27;20103;-75
2022/07/10 08:57:01;;;;;;;5.13;1.30;;;;;;;;;;5114689;28;20031;-75
2022/07/10 08:59:29;;;;;;;7.13;1.40;;;;;;;;;;5131481;27;20038;-76
2022/07/10 09:01:55;;;;;;;9.80;1.67;;;;;;;;;;5135438;27;20631;-76
2022/07/10 09:04:23;;;;;;;7.10;1.42;;;;;;;;;;5136959;27;20055;-76
2022/07/10 09:06:50;;;;;;;7.78;1.95;;;;;;;;;;5135646;27;20042;-76
2022/07/10 09:09:15;;;;;;;5.93;1.35;;;;;;;;;;5118464;27;20074;-76
2022/07/10 09:11:42;;;;;;;6.03;1.50;;;;;;;;;;5136711;27;20106;-76
2022/07/10 09:14:11;;;;;;;3.03;1.30;;;;;;;;;;5136524;27;20480;-76
2022/07/10 09:16:39;;;;;;;7.22;1.60;;;;;;;;;;5117331;27;20037;-76
2022/07/10 09:19:19;;;;;;;6.07;1.40;;;;;;;;;;5135351;27;20087;-80
2022/07/10 09:21:46;;;;;;;7.72;1.70;;;;;;;;;;5139853;27;20488;-79
2022/07/10 09:24:11;;;;;;;5.70;1.10;;;;;;;;;;5120803;27;20054;-79
2022/07/10 09:26:38;;;;;;;8.80;1.73;;;;;;;;;;5120136;27;20107;-79
2022/07/10 09:29:11;;;;;;;8.00;1.40;;;;;;;;;;5140178;27;20031;-83
2022/07/10 09:31:56;;;;;;;4.80;1.33;;;;;;;;;;5123441;27;20057;-81
2022/07/10 09:34:47;;;;;;;5.67;1.30;;;;;;;;;;5123438;27;20035;-80
2022/07/10 09:37:20;;;;;;;2.80;0.95;;;;;;;;;;5148390;27;20407;-81
2022/07/10 09:39:59;;;;;;;6.55;1.02;;;;;;;;;;5139036;27;20080;-75
2022/07/10 09:42:26;;;;;;;2.30;0.85;;;;;;;;;;5156214;27;20043;-76
2022/07/10 09:44:52;;;;;;;4.20;1.33;;;;;;;;;;5158595;27;20030;-76
2022/07/10 09:47:22;;;;;;;4.63;1.33;;;;;;;;;;5155520;27;20110;-75
2022/07/10 09:49:47;;;;;;;6.85;1.40;;;;;;;;;;5138212;27;20037;-76
2022/07/10 09:52:13;;;;;;;6.70;1.90;;;;;;;;;;5157366;27;20039;-76
2022/07/10 09:54:39;;;;;;;6.05;1.35;;;;;;;;;;5139304;27;20114;-76
2022/07/10 09:57:07;;;;;;;3.70;1.08;;;;;;;;;;5155853;27;20079;-77
2022/07/10 09:59:33;;;;;;;6.05;1.30;;;;;;;;;;5138306;27;20138;-75
2022/07/10 10:02:00;;;;;;;4.18;1.48;;;;;;;;;;5154771;27;20062;-76
2022/07/10 10:04:28;;;;;;;8.25;1.30;;;;;;;;;;5155255;27;20756;-76
2022/07/10 10:06:59;;;;;;;4.57;1.40;;;;;;;;;;5138551;27;20449;-77
2022/07/10 10:09:38;;;;;;;4.85;1.10;;;;;;;;;;5159153;27;20034;-78
2022/07/10 10:12:22;;;;;;;5.82;1.42;;;;;;;;;;5159972;27;20035;-78
2022/07/10 10:14:49;;;;;;;7.15;1.35;;;;;;;;;;5140742;27;20030;-77
2022/07/10 10:17:17;;;;;;;5.25;1.40;;;;;;;;;;5156091;27;20125;-78
2022/07/10 10:22:29;;;;;;;;;;;;;;;;;;5137271;27;20062;-79
2022/07/10 10:24:55;;;;;;;5.50;1.42;;;;;;;;;;5118314;27;20357;-77
2022/07/10 10:27:20;;;;;;;8.55;2.15;;;;;;;;;;5138475;27;20120;-79
2022/07/10 10:29:50;;;;;;;6.60;1.35;;;;;;;;;;5121500;27;20066;-79
2022/07/10 10:32:16;;;;;;;7.32;1.40;;;;;;;;;;5123021;27;20146;-80
2022/07/10 10:34:55;;;;;;;9.23;2.25;;;;;;;;;;5118187;27;20055;-77
2022/07/10 10:37:26;;;;;;;7.25;1.67;;;;;;;;;;5134632;27;20042;-76
2022/07/10 10:39:53;;;;;;;7.35;1.27;;;;;;;;;;5133716;27;20138;-75
2022/07/10 10:42:43;;;;;;;4.40;1.17;;;;;;;;;;5138957;27;20416;-75
2022/07/10 10:45:31;;;;;;;6.43;1.30;;;;;;;;;;5133793;27;20038;-76
2022/07/10 10:48:04;;;;;;;4.90;1.40;;;;;;;;;;5134861;27;20118;-76
2022/07/10 10:50:40;;;;;;;5.88;1.70;;;;;;;;;;5133646;27;20031;-76
2022/07/10 10:53:12;;;;;;;9.50;1.80;;;;;;;;;;5133974;27;20084;-76
2022/07/10 10:55:38;;;;;;;6.10;1.30;;;;;;;;;;5116524;27;20027;-76
2022/07/10 10:58:23;;;;;;;4.47;1.52;;;;;;;;;;5133757;27;20080;-76
2022/07/10 11:00:50;;;;;;;6.85;1.40;;;;;;;;;;5116673;27;20035;-75
2022/07/10 11:03:18;;;;;;;6.63;1.52;;;;;;;;;;5116477;27;20039;-75
2022/07/10 11:05:45;;;;;;;5.78;1.20;;;;;;;;;;5133138;27;20058;-75
2022/07/10 11:08:12;;;;;;;4.05;1.33;;;;;;;;;;5133388;27;20027;-75
2022/07/10 11:10:38;;;;;;;5.85;1.40;;;;;;;;;;5116386;27;20502;-75
2022/07/10 11:13:04;;;;;;;9.57;1.48;;;;;;;;;;5120570;27;20103;-75
2022/07/10 11:15:35;;;;;;;7.53;1.48;;;;;;;;;;5133195;27;20066;-75
2022/07/10 11:18:05;;;;;;;6.40;1.48;;;;;;;;;;5133017;27;20039;-75
2022/07/10 11:20:56;;;;;;;6.25;1.67;;;;;;;;;;5115877;27;20520;-76
2022/07/10 11:24:00;;;;;;;3.47;1.35;;;;;;;;;;5115009;27;20038;-76
2022/07/10 11:27:03;;;;;;;5.78;1.20;;;;;;;;;;5116015;27;20376;-76
2022/07/10 11:29:36;;;;;;;5.15;1.50;;;;;;;;;;5134311;27;20497;-76
2022/07/10 11:32:02;;;;;;;9.45;1.52;;;;;;;;;;5133145;27;20046;-75
2022/07/10 11:34:35;;;;;;;5.32;1.30;;;;;;;;;;5131005;27;20039;-77
2022/07/10 11:37:00;;;;;;;6.55;1.80;;;;;;;;;;5125253;27;20550;-76
2022/07/10 11:39:26;;;;;;;4.78;1.23;;;;;;;;;;5107848;27;20051;-76
2022/07/10 11:41:52;;;;;;;5.05;1.25;;;;;;;;;;5120469;27;20058;-77
2022/07/10 11:44:20;;;;;;;7.20;1.50;;;;;;;;;;5119569;27;20118;-76
2022/07/10 11:46:49;;;;;;;2.45;1.17;;;;;;;;;;5113346;28;20381;-76
2022/07/10 11:49:15;;;;;;;5.65;1.17;;;;;;;;;;5116848;27;20036;-76
2022/07/10 11:51:42;;;;;;;11.10;2.15;;;;;;;;;;5113841;27;20569;-76
2022/07/10 11:54:12;;;;;;;5.82;1.35;;;;;;;;;;5130272;27;20038;-76
2022/07/10 11:56:43;;;;;;;6.28;1.67;;;;;;;;;;5109370;28;20039;-75
2022/07/10 11:59:10;;;;;;;9.32;1.65;;;;;;;;;;5113202;28;20031;-75
2022/07/10 12:01:46;;;;;;;5.45;1.45;;;;;;;;;;5118098;28;20110;-75
2022/07/10 12:04:12;;;;;;;;;;;;;;;;;;5108788;28;20504;-75
2022/07/10 12:06:40;;;;;;;5.53;1.17;;;;;;;;;;5117847;28;19912;-76
2022/07/10 12:09:08;;;;;;;8.60;1.45;;;;;;;;;;5111397;28;20471;-75
2022/07/10 12:11:35;;;;;;;5.80;1.50;;;;;;;;;;5109609;27;20031;-76
2022/07/10 12:14:20;;;;;;;4.82;1.35;;;;;;;;;;5102550;28;20035;-77
2022/07/10 12:16:53;;;;;;;7.20;1.55;;;;;;;;;;5106332;28;20477;-76
2022/07/10 12:19:24;;;;;;;5.72;1.42;;;;;;;;;;5113994;27;20039;-75
2022/07/10 12:21:51;;;;;;;5.38;1.13;;;;;;;;;;5096867;28;20028;-75
2022/07/10 12:24:19;;;;;;;6.05;1.52;;;;;;;;;;5115003;27;20035;-75
2022/07/10 12:26:45;;;;;;;5.85;1.40;;;;;;;;;;5106256;27;20047;-75
2022/07/10 12:29:22;;;;;;;4.70;1.35;;;;;;;;;;5125458;27;20032;-75
2022/07/10 12:31:49;;;;;;;5.35;1.13;;;;;;;;;;5107094;28;20032;-75
2022/07/10 12:34:17;;;;;;;6.13;1.02;;;;;;;;;;5107443;27;20028;-75
2022/07/10 12:36:56;;;;;;;3.72;1.42;;;;;;;;;;5127672;27;20035;-74
2022/07/10 12:39:24;;;;;;;6.00;1.13;;;;;;;;;;5107608;27;20091;-75
2022/07/10 12:42:02;;;;;;;5.30;1.20;;;;;;;;;;5095528;28;20502;-75
2022/07/10 12:44:33;;;;;;;5.93;1.50;;;;;;;;;;5115142;28;20051;-75
2022/07/10 12:47:14;;;;;;;8.35;1.85;;;;;;;;;;5115721;28;20511;-75
2022/07/10 12:50:13;;;;;;;4.50;1.48;;;;;;;;;;5098682;28;20035;-75
2022/07/10 12:52:39;;;;;;;2.17;0.95;;;;;;;;;;5082678;28;20066;-75
2022/07/10 12:55:21;;;;;;;6.38;1.00;;;;;;;;;;5114449;28;20663;-75
2022/07/10 12:57:53;;;;;;;6.07;1.48;;;;;;;;;;5115188;28;20047;-75
2022/07/10 13:00:22;;;;;;;7.82;1.70;;;;;;;;;;5098494;28;20035;-75
2022/07/10 13:02:52;;;;;;;3.22;1.15;;;;;;;;;;5098562;28;20031;-75
2022/07/10 13:05:31;;;;;;;7.18;1.60;;;;;;;;;;5117433;27;20126;-74
2022/07/10 13:08:07;;;;;;;9.05;1.70;;;;;;;;;;5156090;27;20479;-75
2022/07/10 13:10:36;;;;;;;6.85;1.58;;;;;;;;;;5128030;27;20511;-75
2022/07/10 13:13:05;;;;;;;6.63;1.38;;;;;;;;;;5136915;27;20036;-75
2022/07/10 13:15:32;;;;;;;6.18;1.50;;;;;;;;;;5136508;27;20498;-75
2022/07/10 13:17:58;;;;;;;6.20;1.20;;;;;;;;;;5118399;27;20492;-75
2022/07/10 13:20:24;;;;;;;4.68;1.30;;;;;;;;;;5118512;27;20027;-74
2022/07/10 13:22:52;;;;;;;6.00;1.20;;;;;;;;;;5118832;27;20039;-74
2022/07/10 13:25:18;;;;;;;14.05;2.17;;;;;;;;;;5117941;27;20031;-74
2022/07/10 13:27:45;;;;;;;8.27;1.70;;;;;;;;;;5118423;27;20035;-74
2022/07/10 13:30:11;;;;;;;5.38;1.30;;;;;;;;;;5118015;27;20049;-75
2022/07/10 13:32:38;;;;;;;6.60;1.58;;;;;;;;;;5135401;27;20445;-75
2022/07/10 13:35:05;;;;;;;7.60;1.77;;;;;;;;;;5118090;27;20035;-75
2022/07/10 13:37:32;;;;;;;7.35;1.80;;;;;;;;;;5135302;27;20031;-74
2022/07/10 13:39:58;;;;;;;2.83;0.93;;;;;;;;;;5128382;27;20407;-74
2022/07/10 13:42:24;;;;;;;3.95;1.10;;;;;;;;;;5138674;27;20031;-75
2022/07/10 13:44:50;;;;;;;3.35;0.93;;;;;;;;;;5157082;27;20087;-75
2022/07/10 13:47:16;;;;;;;2.25;1.50;;;;;;;;;;5137674;27;20399;-74
2022/07/10 13:49:42;;;;;;;9.13;1.90;;;;;;;;;;5155846;27;20027;-75
2022/07/10 13:52:08;;;;;;;3.80;1.05;;;;;;;;;;5138131;27;20030;-74
2022/07/10 13:54:35;;;;;;;6.55;2.13;;;;;;;;;;5137985;27;20030;-75
2022/07/10 13:57:02;;;;;;;5.50;2.38;;;;;;;;;;5137678;27;20039;-75
2022/07/10 13:59:29;;;;;;;3.97;1.17;;;;;;;;;;5138126;27;20087;-75
2022/07/10 14:01:55;;;;;;;4.95;1.92;;;;;;;;;;5154966;27;20035;-76
2022/07/10 14:04:22;;;;;;;6.25;3.30;;;;;;;;;;5138312;27;20153;-75
2022/07/10 14:06:48;;;;;;;5.13;0.93;;;;;;;;;;5155593;27;20035;-75
2022/07/10 14:09:16;;;;;;;3.92;1.00;;;;;;;;;;5129420;27;20030;-75
2022/07/10 14:11:43;;;;;;;2.22;0.60;;;;;;;;;;5114000;28;20078;-75
2022/07/10 14:14:10;;;;;;;6.40;1.67;;;;;;;;;;5115261;27;20058;-75
2022/07/10 14:16:36;;;;;;;1.48;0.80;;;;;;;;;;5114957;28;20049;-76
2022/07/10 14:19:02;;;;;;;3.42;1.25;;;;;;;;;;5114658;28;20538;-75
2022/07/10 14:21:28;;;;;;;5.72;2.22;;;;;;;;;;5113939;28;20535;-75
2022/07/10 14:23:58;;;;;;;3.15;1.13;;;;;;;;;;5096690;28;20092;-75
2022/07/10 14:26:23;;;;;;;2.47;1.30;;;;;;;;;;5113522;28;20043;-76
2022/07/10 14:28:49;;;;;;;4.32;2.10;;;;;;;;;;5114978;28;20030;-75
2022/07/10 14:31:14;;;;;;;2.65;1.13;;;;;;;;;;5114759;28;20067;-75
2022/07/10 14:33:40;;;;;;;3.78;0.77;;;;;;;;;;5113716;28;20106;-75
2022/07/10 14:36:06;;;;;;;2.90;0.75;;;;;;;;;;5113390;28;20036;-76
2022/07/10 14:38:32;;;;;;;1.15;0.63;;;;;;;;;;5113032;28;20119;-76
2022/07/10 14:41:00;;;;;;;2.35;0.40;;;;;;;;;;5113311;27;20035;-76
2022/07/10 14:43:27;;;;;;;2.45;0.57;;;;;;;;;;5134695;27;20031;-75
2022/07/10 14:45:53;;;;;;;0.85;0.50;;;;;;;;;;5133572;27;20091;-76
2022/07/10 14:48:19;;;;;;;1.13;0.80;;;;;;;;;;5134983;27;20407;-76
2022/07/10 14:50:45;;;;;;;2.92;0.55;;;;;;;;;;5127568;27;20034;-76
2022/07/10 14:53:11;;;;;;;4.55;1.92;;;;;;;;;;5121023;27;20085;-75
2022/07/10 14:55:37;;;;;;;4.65;1.48;;;;;;;;;;5107124;27;20392;-75
2022/07/10 14:58:02;;;;;;;1.98;0.98;;;;;;;;;;5119490;27;20043;-75